Time;durP1;ratioP1;P1;durP2;ratioP2;P2;SDS_P1;SDS_P2;PMS_P1;PMS_P2;Temp;Humidity;BMP_temperature;BMP_pressure;BME280_temperature;BME280_humidity;BME280_pressure;Samples;Min_cycle;Max_cycle;Signal;HPM_P1;HPM_P2
2021/09/23 00:02:35;;;;;;;27.50;10.57;;;14.30;99.90;;;;;;5050158;28;20225;-82
2021/09/23 00:05:01;;;;;;;15.07;8.67;;;14.30;99.90;;;;;;5065252;28;20229;-82
2021/09/23 00:07:27;;;;;;;15.87;9.90;;;14.30;99.90;;;;;;5066394;28;20228;-82
2021/09/23 00:09:53;;;;;;;13.00;8.77;;;14.30;99.90;;;;;;5049119;28;20283;-82
2021/09/23 00:12:19;;;;;;;17.17;8.87;;;14.30;99.90;;;;;;5067252;28;20255;-83
2021/09/23 00:14:44;;;;;;;18.00;8.87;;;14.20;99.90;;;;;;5050243;28;20209;-83
2021/09/23 00:17:10;;;;;;;17.10;9.63;;;14.20;99.90;;;;;;5066079;28;20229;-81
2021/09/23 00:19:36;;;;;;;19.07;9.83;;;14.20;99.90;;;;;;5033247;28;20232;-82
2021/09/23 00:22:02;;;;;;;13.47;8.20;;;14.20;99.90;;;;;;5049874;28;20247;-82
2021/09/23 00:24:28;;;;;;;17.60;8.93;;;14.10;99.90;;;;;;5067100;28;20189;-82
2021/09/23 00:26:53;;;;;;;15.47;8.23;;;14.10;99.90;;;;;;5032982;28;20678;-83
2021/09/23 00:29:19;;;;;;;12.47;8.53;;;14.20;99.90;;;;;;5066314;28;20741;-82
2021/09/23 00:31:45;;;;;;;14.10;8.63;;;14.20;99.90;;;;;;5032773;28;20227;-82
2021/09/23 00:34:11;;;;;;;12.47;7.80;;;14.10;99.90;;;;;;5066200;28;20232;-82
2021/09/23 00:36:37;;;;;;;12.00;7.53;;;14.10;99.90;;;;;;5049066;28;20296;-82
2021/09/23 00:39:02;;;;;;;15.50;8.20;;;14.10;99.90;;;;;;5049051;28;20291;-82
2021/09/23 00:41:28;;;;;;;13.47;9.03;;;14.10;99.90;;;;;;5040752;28;20877;-82
2021/09/23 00:43:54;;;;;;;12.90;8.67;;;14.10;99.90;;;;;;5065422;28;20221;-83
2021/09/23 00:46:20;;;;;;;13.53;7.50;;;14.10;99.90;;;;;;5066375;28;20221;-82
2021/09/23 00:48:49;;;;;;;14.13;8.23;;;14.10;99.90;;;;;;5064732;28;20193;-83
2021/09/23 00:51:18;;;;;;;12.70;7.47;;;14.10;99.90;;;;;;5065907;28;20302;-84
2021/09/23 00:53:44;;;;;;;15.83;10.43;;;14.10;99.90;;;;;;5066078;28;20237;-84
2021/09/23 00:56:10;;;;;;;14.80;8.27;;;14.10;99.90;;;;;;5065612;28;20225;-82
2021/09/23 00:58:36;;;;;;;16.00;10.83;;;14.10;99.90;;;;;;5032534;28;20589;-82
2021/09/23 01:01:02;;;;;;;20.77;10.90;;;14.10;99.90;;;;;;5064138;28;20181;-82
2021/09/23 01:03:28;;;;;;;22.00;11.17;;;14.00;99.90;;;;;;5041340;28;20200;-82
2021/09/23 01:05:54;;;;;;;19.67;11.07;;;14.00;99.90;;;;;;5047373;28;20221;-83
2021/09/23 01:08:20;;;;;;;17.03;8.97;;;14.00;99.90;;;;;;5063866;28;20212;-85
2021/09/23 01:10:45;;;;;;;19.00;10.77;;;14.10;99.90;;;;;;5063921;28;20221;-82
2021/09/23 01:13:11;;;;;;;18.37;10.03;;;14.00;99.90;;;;;;5031758;28;20261;-82
2021/09/23 01:15:38;;;;;;;22.27;12.63;;;14.00;99.90;;;;;;5032767;28;20191;-82
2021/09/23 01:18:04;;;;;;;18.13;10.63;;;14.00;99.90;;;;;;5049474;28;20251;-82
2021/09/23 01:20:30;;;;;;;24.07;11.43;;;14.00;99.90;;;;;;5064569;28;20217;-82
2021/09/23 01:22:55;;;;;;;23.20;11.83;;;14.00;99.90;;;;;;5031996;28;20236;-82
2021/09/23 01:25:23;;;;;;;23.30;12.83;;;14.10;99.90;;;;;;5064894;28;20228;-83
2021/09/23 01:27:49;;;;;;;25.83;13.73;;;14.10;99.90;;;;;;5058322;28;20234;-82
2021/09/23 01:30:16;;;;;;;23.13;12.87;;;14.10;99.90;;;;;;5066480;28;20185;-83
2021/09/23 01:32:43;;;;;;;28.37;14.67;;;14.10;99.90;;;;;;5048464;28;20225;-82
2021/09/23 01:35:09;;;;;;;24.47;13.27;;;14.20;99.90;;;;;;5066088;28;20223;-85
2021/09/23 01:37:35;;;;;;;23.43;15.20;;;14.20;99.90;;;;;;5065869;28;20217;-84
2021/09/23 01:40:01;;;;;;;29.23;14.43;;;14.20;99.90;;;;;;5064482;28;20682;-84
2021/09/23 01:42:27;;;;;;;28.20;16.97;;;14.20;99.90;;;;;;5049298;28;20538;-84
2021/09/23 01:44:54;;;;;;;28.30;13.50;;;14.20;99.90;;;;;;5048474;28;20217;-85
2021/09/23 01:47:19;;;;;;;30.97;15.73;;;14.20;99.90;;;;;;5080856;28;20772;-86
2021/09/23 01:49:45;;;;;;;33.83;17.60;;;14.20;99.90;;;;;;5063694;28;20231;-82
2021/09/23 01:52:11;;;;;;;37.77;17.97;;;14.20;99.90;;;;;;5062401;28;20237;-84
2021/09/23 01:54:37;;;;;;;37.00;17.83;;;14.20;99.90;;;;;;5032376;28;20185;-82
2021/09/23 01:57:02;;;;;;;29.53;16.13;;;14.10;99.90;;;;;;5047254;28;20266;-83
2021/09/23 01:59:28;;;;;;;30.60;16.37;;;14.10;99.90;;;;;;5031013;28;20217;-83
2021/09/23 02:01:54;;;;;;;29.40;17.63;;;14.10;99.90;;;;;;5030251;28;20209;-83
2021/09/23 02:04:20;;;;;;;33.57;18.70;;;14.10;99.90;;;;;;5031000;28;20217;-84
2021/09/23 02:06:46;;;;;;;36.73;20.53;;;14.10;99.90;;;;;;5048209;28;20197;-85
2021/09/23 02:09:12;;;;;;;28.13;15.77;;;14.20;99.90;;;;;;5064845;28;20836;-83
2021/09/23 02:11:37;;;;;;;34.80;17.77;;;14.20;99.90;;;;;;5048427;28;20221;-85
2021/09/23 02:14:04;;;;;;;33.40;19.27;;;14.20;99.90;;;;;;5047473;28;20290;-82
2021/09/23 02:16:30;;;;;;;35.37;19.67;;;14.30;99.90;;;;;;5046087;28;20217;-85
2021/09/23 02:18:56;;;;;;;40.57;20.73;;;14.30;99.90;;;;;;5047491;28;20189;-82
2021/09/23 02:21:21;;;;;;;33.30;19.27;;;14.30;99.90;;;;;;5064457;28;20181;-84
2021/09/23 02:23:49;;;;;;;33.17;17.90;;;14.20;99.90;;;;;;5030549;28;20278;-83
2021/09/23 02:26:14;;;;;;;31.33;17.27;;;14.20;99.90;;;;;;5062146;28;20599;-82
2021/09/23 02:28:40;;;;;;;35.43;15.33;;;14.20;99.90;;;;;;5039700;28;20217;-82
2021/09/23 02:31:06;;;;;;;32.40;17.57;;;14.20;99.90;;;;;;5030597;28;20221;-85
2021/09/23 02:33:33;;;;;;;35.33;16.93;;;14.10;99.90;;;;;;5063759;28;20209;-84
2021/09/23 02:35:59;;;;;;;41.00;17.10;;;14.10;99.90;;;;;;5064131;28;20226;-84
2021/09/23 02:38:25;;;;;;;34.10;18.23;;;14.10;99.90;;;;;;5046833;28;20221;-84
2021/09/23 02:40:51;;;;;;;35.67;17.37;;;14.10;99.90;;;;;;5037681;28;20299;-86
2021/09/23 02:43:17;;;;;;;31.27;18.27;;;14.10;99.90;;;;;;5044069;28;20280;-85
2021/09/23 02:45:43;;;;;;;32.97;19.27;;;14.10;99.90;;;;;;5027682;28;20224;-84
2021/09/23 02:48:09;;;;;;;34.50;17.80;;;14.10;99.90;;;;;;5026919;28;20234;-83
2021/09/23 02:50:34;;;;;;;35.87;18.93;;;14.10;99.90;;;;;;5043414;28;20308;-84
2021/09/23 02:53:00;;;;;;;33.27;18.17;;;14.10;99.90;;;;;;5026945;28;20334;-85
2021/09/23 02:55:26;;;;;;;31.63;17.80;;;14.10;99.90;;;;;;5026754;28;20589;-85
2021/09/23 02:57:52;;;;;;;27.13;17.30;;;14.10;99.90;;;;;;5024346;28;20191;-84
2021/09/23 03:00:19;;;;;;;29.00;16.23;;;14.10;99.90;;;;;;5026646;28;20182;-84
2021/09/23 03:02:46;;;;;;;28.37;15.17;;;14.10;99.90;;;;;;5044500;28;20260;-84
2021/09/23 03:05:11;;;;;;;41.47;16.33;;;14.20;99.90;;;;;;5041609;28;20312;-83
2021/09/23 03:07:37;;;;;;;27.60;15.77;;;14.20;99.90;;;;;;5026004;28;21026;-84
2021/09/23 03:10:06;;;;;;;28.53;14.83;;;14.20;99.90;;;;;;5042722;28;20596;-84
2021/09/23 03:12:32;;;;;;;30.57;16.20;;;14.30;99.90;;;;;;5042415;28;20232;-83
2021/09/23 03:14:58;;;;;;;31.57;15.33;;;14.30;99.90;;;;;;5027039;28;20682;-83
2021/09/23 03:17:24;;;;;;;24.93;13.57;;;14.40;99.90;;;;;;5020314;28;20232;-83
2021/09/23 03:19:52;;;;;;;26.10;11.83;;;14.40;99.90;;;;;;5052510;28;20301;-83
2021/09/23 03:22:19;;;;;;;23.13;12.30;;;14.50;99.90;;;;;;5062947;28;20669;-84
2021/09/23 03:24:47;;;;;;;19.17;9.57;;;14.70;99.90;;;;;;5038807;28;20229;-84
2021/09/23 03:27:14;;;;;;;25.20;10.20;;;14.80;99.90;;;;;;5047709;28;20197;-83
2021/09/23 03:29:39;;;;;;;21.70;6.90;;;14.80;99.90;;;;;;5079578;28;20229;-85
2021/09/23 03:32:05;;;;;;;16.67;8.67;;;15.10;99.90;;;;;;5044691;28;20232;-84
2021/09/23 03:34:31;;;;;;;13.37;6.60;;;15.20;99.90;;;;;;5062300;28;20225;-84
2021/09/23 03:36:57;;;;;;;19.13;7.97;;;15.30;99.90;;;;;;5041904;28;20184;-83
2021/09/23 03:39:23;;;;;;;15.43;6.13;;;15.40;99.90;;;;;;5057996;28;20703;-87
2021/09/23 03:41:49;;;;;;;16.37;7.10;;;15.50;99.90;;;;;;5041539;28;20216;-84
2021/09/23 03:44:15;;;;;;;15.10;5.90;;;15.60;99.90;;;;;;5026403;28;20217;-84
2021/09/23 03:46:40;;;;;;;9.03;4.93;;;15.70;99.90;;;;;;5028850;28;20263;-84
2021/09/23 03:49:06;;;;;;;8.63;5.23;;;15.70;99.90;;;;;;5027479;28;20776;-84
2021/09/23 03:51:32;;;;;;;13.70;4.60;;;15.70;99.90;;;;;;5062340;28;20721;-84
2021/09/23 03:53:58;;;;;;;13.10;5.57;;;15.70;99.90;;;;;;5046660;28;20244;-84
2021/09/23 03:56:23;;;;;;;13.67;6.50;;;15.70;99.90;;;;;;5030137;28;20743;-85
2021/09/23 03:58:49;;;;;;;14.53;5.73;;;15.70;99.90;;;;;;5046149;28;20624;-84
2021/09/23 04:01:15;;;;;;;9.80;4.80;;;15.70;99.90;;;;;;5063698;28;20277;-85
2021/09/23 04:03:41;;;;;;;13.00;5.37;;;15.80;99.90;;;;;;5030252;28;20197;-85
2021/09/23 04:06:06;;;;;;;16.73;5.70;;;15.80;99.90;;;;;;5045236;28;20308;-83
2021/09/23 04:08:32;;;;;;;7.40;3.77;;;15.70;99.90;;;;;;5046694;28;21011;-85
2021/09/23 04:10:58;;;;;;;7.93;4.10;;;15.70;99.90;;;;;;5029488;28;20205;-85
2021/09/23 04:13:24;;;;;;;5.63;3.70;;;15.80;99.90;;;;;;5046245;28;20229;-86
2021/09/23 04:15:50;;;;;;;12.90;4.33;;;15.80;99.90;;;;;;5061868;28;20197;-87
2021/09/23 04:18:17;;;;;;;13.47;4.40;;;15.80;99.90;;;;;;5046504;28;20717;-84
2021/09/23 04:20:47;;;;;;;4.47;3.43;;;15.90;99.90;;;;;;5062891;28;20308;-86
2021/09/23 04:23:14;;;;;;;5.17;3.60;;;15.90;99.90;;;;;;5047262;28;20225;-84
2021/09/23 04:25:40;;;;;;;8.40;4.30;;;15.90;99.90;;;;;;5050218;28;20217;-87
2021/09/23 04:28:06;;;;;;;8.43;3.37;;;15.90;99.90;;;;;;5067739;28;20213;-84
2021/09/23 04:30:33;;;;;;;7.03;3.50;;;15.90;99.90;;;;;;5067493;28;20213;-84
2021/09/23 04:32:59;;;;;;;3.97;2.60;;;15.90;99.90;;;;;;5065825;28;20562;-86
2021/09/23 04:35:25;;;;;;;10.00;3.57;;;15.90;99.90;;;;;;5048392;28;20236;-87
2021/09/23 04:37:51;;;;;;;6.97;3.10;;;15.90;99.90;;;;;;5064508;28;20218;-85
2021/09/23 04:40:17;;;;;;;7.67;3.47;;;15.90;99.90;;;;;;5048490;28;20209;-85
2021/09/23 04:42:43;;;;;;;3.90;2.30;;;15.80;99.90;;;;;;5065814;28;20213;-85
2021/09/23 04:45:11;;;;;;;6.30;2.93;;;15.80;99.90;;;;;;5047653;28;20216;-85
2021/09/23 04:47:37;;;;;;;3.53;2.37;;;15.80;99.90;;;;;;5056036;28;20642;-86
2021/09/23 04:50:03;;;;;;;5.33;2.07;;;15.80;99.90;;;;;;5065374;28;20312;-87
2021/09/23 04:52:29;;;;;;;7.40;3.53;;;15.80;99.90;;;;;;5047719;28;20264;-85
2021/09/23 04:54:54;;;;;;;6.93;2.53;;;15.80;99.90;;;;;;5048245;28;20247;-84
2021/09/23 04:57:20;;;;;;;4.77;3.07;;;15.80;99.90;;;;;;5047730;28;20573;-84
2021/09/23 04:59:46;;;;;;;8.57;2.97;;;15.80;99.90;;;;;;5047902;28;20267;-85
2021/09/23 05:02:11;;;;;;;2.70;1.90;;;15.80;99.90;;;;;;5030660;28;20266;-86
2021/09/23 05:04:37;;;;;;;6.57;2.63;;;15.80;99.90;;;;;;5040537;28;20571;-86
2021/09/23 05:07:06;;;;;;;4.53;2.60;;;15.80;99.90;;;;;;5044447;28;20193;-86
2021/09/23 05:09:33;;;;;;;4.03;1.90;;;15.80;99.90;;;;;;5027869;28;20219;-86
2021/09/23 05:11:59;;;;;;;4.33;2.30;;;15.80;99.90;;;;;;5043253;28;20210;-86
2021/09/23 05:14:26;;;;;;;3.70;2.63;;;15.80;99.90;;;;;;5037775;28;20244;-85
2021/09/23 05:16:52;;;;;;;3.37;2.37;;;15.80;99.90;;;;;;5054864;28;20309;-87
2021/09/23 05:19:18;;;;;;;8.67;2.97;;;15.80;99.90;;;;;;5043877;28;20683;-84
2021/09/23 05:21:43;;;;;;;3.07;2.60;;;15.80;99.90;;;;;;5027885;28;20232;-86
2021/09/23 05:24:12;;;;;;;2.30;2.00;;;15.80;99.90;;;;;;5026833;28;20717;-86
2021/09/23 05:26:38;;;;;;;3.53;2.50;;;15.80;99.90;;;;;;5058517;28;20320;-85
2021/09/23 05:29:03;;;;;;;3.63;2.10;;;15.80;99.90;;;;;;5044692;28;20730;-85
2021/09/23 05:31:30;;;;;;;2.43;2.23;;;15.70;99.90;;;;;;5061453;28;20666;-84
2021/09/23 05:33:56;;;;;;;4.13;1.90;;;15.70;99.90;;;;;;5062349;28;20662;-85
2021/09/23 05:36:22;;;;;;;3.37;2.30;;;15.60;99.90;;;;;;5029166;28;20284;-86
2021/09/23 05:38:48;;;;;;;5.07;2.50;;;15.60;99.90;;;;;;5062181;28;20308;-84
2021/09/23 05:41:13;;;;;;;5.03;2.47;;;15.70;99.90;;;;;;5046954;28;20225;-84
2021/09/23 05:43:39;;;;;;;2.50;2.30;;;15.60;99.90;;;;;;5045576;28;20209;-85
2021/09/23 05:46:05;;;;;;;5.60;2.20;;;15.70;99.90;;;;;;5054799;28;20282;-85
2021/09/23 05:48:31;;;;;;;4.17;2.37;;;15.70;99.90;;;;;;5061175;28;20192;-84
2021/09/23 05:50:57;;;;;;;4.00;2.37;;;15.70;99.90;;;;;;5028885;28;20514;-85
2021/09/23 05:53:22;;;;;;;8.37;2.73;;;15.70;99.90;;;;;;5063854;28;20707;-84
2021/09/23 05:55:48;;;;;;;5.90;3.53;;;15.70;99.90;;;;;;5063551;28;20316;-85
2021/09/23 05:58:14;;;;;;;6.43;2.33;;;15.80;99.90;;;;;;5030827;28;20216;-83
2021/09/23 06:00:39;;;;;;;5.07;2.67;;;15.80;99.90;;;;;;5046407;28;22027;-83
2021/09/23 06:03:05;;;;;;;5.37;3.97;;;15.80;99.90;;;;;;5045606;28;20231;-83
2021/09/23 06:05:31;;;;;;;5.67;2.67;;;15.90;99.90;;;;;;5046772;28;20870;-83
2021/09/23 06:07:57;;;;;;;2.63;2.37;;;15.90;99.90;;;;;;5046262;28;20677;-84
2021/09/23 06:10:23;;;;;;;3.87;2.87;;;15.90;99.90;;;;;;5045308;28;20225;-85
2021/09/23 06:12:48;;;;;;;3.80;2.33;;;15.90;99.90;;;;;;5062478;28;20217;-82
2021/09/23 06:15:14;;;;;;;2.83;2.10;;;15.90;99.90;;;;;;5046802;28;20650;-85
2021/09/23 06:17:41;;;;;;;6.80;2.00;;;16.00;99.90;;;;;;5060854;28;20249;-83
2021/09/23 06:20:08;;;;;;;6.17;2.20;;;16.00;99.90;;;;;;5029561;28;20212;-84
2021/09/23 06:22:34;;;;;;;5.10;2.10;;;16.00;99.90;;;;;;5062293;28;20221;-81
2021/09/23 06:25:00;;;;;;;1.30;1.00;;;16.10;99.90;;;;;;5044778;28;20197;-84
2021/09/23 06:27:26;;;;;;;1.63;1.00;;;16.10;99.90;;;;;;5062672;28;20189;-82
2021/09/23 06:29:52;;;;;;;1.00;0.90;;;16.10;99.90;;;;;;5046080;28;20678;-82
2021/09/23 06:32:18;;;;;;;1.67;1.27;;;16.20;99.90;;;;;;5045766;28;20752;-83
2021/09/23 06:34:43;;;;;;;2.47;1.27;;;16.30;99.90;;;;;;5063055;28;20670;-81
2021/09/23 06:37:09;;;;;;;5.40;1.87;;;16.70;99.90;;;;;;5060535;28;20224;-80
2021/09/23 06:39:38;;;;;;;10.30;2.37;;;17.30;99.90;;;;;;5063228;28;20189;-80
2021/09/23 06:42:04;;;;;;;1.50;0.90;;;18.00;99.90;;;;;;5045269;28;20227;-80
2021/09/23 06:44:30;;;;;;;1.87;0.90;;;18.60;99.90;;;;;;5055282;28;20263;-84
2021/09/23 06:46:56;;;;;;;1.60;1.07;;;19.10;99.90;;;;;;5045013;28;20690;-82
2021/09/23 06:49:23;;;;;;;5.30;1.30;;;19.10;99.90;;;;;;5061211;28;20213;-84
2021/09/23 06:51:50;;;;;;;5.30;1.93;;;18.80;99.90;;;;;;5078409;28;20244;-82
2021/09/23 06:54:17;;;;;;;4.50;1.30;;;18.80;99.90;;;;;;5061829;28;20824;-82
2021/09/23 06:56:42;;;;;;;1.57;0.93;;;18.90;99.90;;;;;;5044697;28;20747;-83
2021/09/23 06:59:08;;;;;;;4.17;1.30;;;19.10;99.90;;;;;;5027796;28;20229;-82
2021/09/23 07:01:34;;;;;;;4.40;1.20;;;19.00;99.90;;;;;;5055744;28;20354;-82
2021/09/23 07:04:00;;;;;;;5.27;1.00;;;19.00;99.90;;;;;;5043915;28;20193;-82
2021/09/23 07:06:26;;;;;;;3.23;1.53;;;18.80;99.90;;;;;;5043027;28;20270;-81
2021/09/23 07:08:51;;;;;;;4.10;1.23;;;18.90;99.90;;;;;;5060606;28;20755;-81
2021/09/23 07:11:17;;;;;;;5.07;1.40;;;19.20;99.90;;;;;;5043580;28;20964;-82
2021/09/23 07:13:44;;;;;;;2.60;1.53;;;19.70;99.90;;;;;;5060358;28;20239;-83
2021/09/23 07:16:10;;;;;;;0.90;0.77;;;19.20;99.90;;;;;;5060330;28;20300;-82
2021/09/23 07:18:36;;;;;;;1.67;1.17;;;18.60;99.90;;;;;;5044739;28;21027;-82
2021/09/23 07:21:03;;;;;;;1.17;1.00;;;18.40;99.90;;;;;;5061148;28;20244;-82
2021/09/23 07:23:29;;;;;;;4.33;1.50;;;18.30;99.90;;;;;;5060935;28;20225;-83
2021/09/23 07:25:54;;;;;;;0.80;0.80;;;18.00;99.90;;;;;;5043466;28;20221;-79
2021/09/23 07:28:20;;;;;;;1.50;1.23;;;17.70;99.90;;;;;;5042162;28;20747;-79
2021/09/23 07:30:46;;;;;;;2.57;1.40;;;17.90;99.90;;;;;;5059593;28;20319;-80
2021/09/23 07:33:12;;;;;;;2.80;1.63;;;18.30;99.90;;;;;;5059239;28;20262;-78
2021/09/23 07:35:38;;;;;;;1.17;1.13;;;18.50;99.90;;;;;;5042344;28;20259;-79
2021/09/23 07:38:04;;;;;;;2.13;0.90;;;18.20;99.90;;;;;;5058419;28;20205;-78
2021/09/23 07:40:30;;;;;;;5.93;2.17;;;18.20;99.90;;;;;;5060301;28;20224;-81
2021/09/23 07:42:55;;;;;;;4.80;1.33;;;18.10;99.90;;;;;;5060354;28;20204;-82
2021/09/23 07:45:21;;;;;;;1.80;1.60;;;17.90;99.90;;;;;;5025062;28;20657;-80
2021/09/23 07:47:47;;;;;;;6.03;2.30;;;17.90;99.90;;;;;;5058709;28;20709;-81
2021/09/23 07:50:14;;;;;;;5.30;1.53;;;18.00;99.90;;;;;;5043134;28;20225;-83
2021/09/23 07:52:40;;;;;;;4.23;2.07;;;18.00;99.90;;;;;;5043499;28;20720;-87
2021/09/23 07:55:06;;;;;;;3.03;1.80;;;18.20;99.90;;;;;;5053975;28;20229;-84
2021/09/23 07:57:34;;;;;;;10.90;1.67;;;18.20;99.90;;;;;;5027507;28;20519;-82
2021/09/23 08:00:03;;;;;;;2.30;1.37;;;17.90;99.90;;;;;;5063443;28;20221;-85
2021/09/23 08:02:29;;;;;;;2.53;1.53;;;17.80;99.90;;;;;;5062171;28;20259;-83
2021/09/23 08:04:54;;;;;;;2.77;1.57;;;18.00;99.90;;;;;;5064827;28;20874;-84
2021/09/23 08:07:20;;;;;;;2.17;1.97;;;18.20;99.90;;;;;;5046160;28;20273;-83
2021/09/23 08:09:46;;;;;;;2.47;1.00;;;18.60;99.90;;;;;;5063234;28;20246;-83
2021/09/23 08:12:12;;;;;;;3.00;1.73;;;18.70;99.90;;;;;;5031293;28;20835;-83
2021/09/23 08:14:38;;;;;;;3.77;1.53;;;18.50;99.90;;;;;;5064161;28;20244;-80
2021/09/23 08:17:04;;;;;;;1.63;1.53;;;18.40;99.90;;;;;;5029774;28;20296;-81
2021/09/23 08:19:31;;;;;;;4.97;1.60;;;18.30;99.90;;;;;;5046133;28;20217;-83
2021/09/23 08:21:58;;;;;;;2.23;1.50;;;18.20;99.90;;;;;;5057990;28;20961;-82
2021/09/23 08:24:24;;;;;;;3.10;1.13;;;18.10;99.90;;;;;;5057947;28;20292;-80
2021/09/23 08:26:49;;;;;;;3.83;1.50;;;18.00;99.90;;;;;;5046186;28;21181;-80
2021/09/23 08:29:16;;;;;;;4.27;1.50;;;18.10;99.90;;;;;;5045822;28;20316;-82
2021/09/23 08:31:41;;;;;;;3.73;1.30;;;18.30;99.90;;;;;;5046685;28;20304;-81
2021/09/23 08:34:07;;;;;;;1.27;1.10;;;18.20;99.90;;;;;;5045891;28;20380;-81
2021/09/23 08:36:33;;;;;;;4.53;1.77;;;18.30;99.90;;;;;;5064765;28;20185;-81
2021/09/23 08:39:00;;;;;;;5.53;1.43;;;18.30;99.90;;;;;;5062592;28;20220;-81
2021/09/23 08:41:25;;;;;;;11.33;1.60;;;18.30;99.90;;;;;;5061637;28;20225;-80
2021/09/23 08:43:51;;;;;;;4.63;1.50;;;18.20;99.90;;;;;;5060951;28;20248;-83
2021/09/23 08:46:18;;;;;;;4.43;1.63;;;18.40;99.90;;;;;;5044452;28;20747;-81
2021/09/23 08:48:44;;;;;;;8.27;2.57;;;18.40;99.90;;;;;;5062705;28;20189;-82
2021/09/23 08:51:10;;;;;;;8.27;1.67;;;18.30;99.90;;;;;;5059697;28;20237;-82
2021/09/23 08:53:38;;;;;;;3.53;1.80;;;18.20;99.90;;;;;;5059910;28;21345;-82
2021/09/23 08:56:04;;;;;;;3.93;1.40;;;18.00;99.90;;;;;;5060749;28;20298;-81
2021/09/23 08:58:30;;;;;;;3.97;1.80;;;17.90;99.90;;;;;;5054935;28;20715;-81
2021/09/23 09:01:06;;;;;;;7.20;1.43;;;17.80;99.90;;;;;;5060655;28;20666;-81
2021/09/23 09:03:36;;;;;;;6.57;1.80;;;17.80;99.90;;;;;;5063085;28;20242;-80
2021/09/23 09:06:07;;;;;;;2.73;1.67;;;17.80;99.90;;;;;;5061011;28;20258;-80
2021/09/23 09:08:34;;;;;;;3.37;2.03;;;17.70;99.90;;;;;;5061418;28;20225;-81
2021/09/23 09:11:02;;;;;;;6.30;1.27;;;17.70;99.90;;;;;;5053834;28;20221;-79
2021/09/23 09:13:54;;;;;;;11.17;2.00;;;17.60;99.90;;;;;;5060684;28;20689;-80
2021/09/23 09:16:22;;;;;;;3.70;1.10;;;17.60;99.90;;;;;;5077567;28;20233;-80
2021/09/23 09:18:50;;;;;;;3.50;1.17;;;17.50;99.90;;;;;;5060626;28;20202;-81
2021/09/23 09:21:22;;;;;;;3.90;1.30;;;17.50;99.90;;;;;;5044976;28;20201;-80
2021/09/23 09:24:00;;;;;;;7.10;1.90;;;17.40;99.90;;;;;;5057186;28;20236;-80
2021/09/23 09:26:25;;;;;;;3.83;1.93;;;17.50;99.90;;;;;;5060462;28;20741;-80
2021/09/23 09:28:53;;;;;;;1.97;1.20;;;17.50;99.90;;;;;;5062810;28;20483;-82
2021/09/23 09:31:20;;;;;;;3.83;1.60;;;17.40;99.90;;;;;;5044993;28;20213;-82
2021/09/23 09:33:48;;;;;;;5.83;1.37;;;17.40;99.90;;;;;;5061329;28;20214;-81
2021/09/23 09:36:26;;;;;;;2.17;1.97;;;17.40;99.90;;;;;;5061302;28;20186;-81
2021/09/23 09:38:54;;;;;;;6.50;1.67;;;17.40;99.90;;;;;;5061465;28;20217;-81
2021/09/23 09:41:28;;;;;;;6.03;2.20;;;17.40;99.90;;;;;;5061554;28;20229;-81
2021/09/23 09:43:58;;;;;;;1.97;0.90;;;17.40;99.90;;;;;;5061102;28;20236;-83
2021/09/23 09:46:52;;;;;;;10.90;1.53;;;17.40;99.90;;;;;;5059983;28;20217;-81
2021/09/23 09:49:20;;;;;;;4.27;1.60;;;17.40;99.90;;;;;;5060920;28;20864;-81
2021/09/23 09:51:55;;;;;;;7.03;1.87;;;17.30;99.90;;;;;;5060134;28;20355;-81
2021/09/23 09:54:21;;;;;;;5.20;1.53;;;17.30;99.90;;;;;;5059666;28;20709;-81
2021/09/23 09:57:03;;;;;;;1.60;1.10;;;17.20;99.90;;;;;;5060764;28;20224;-81
2021/09/23 09:59:29;;;;;;;5.57;2.00;;;17.20;99.90;;;;;;5059543;28;20223;-81
2021/09/23 10:01:56;;;;;;;6.10;1.73;;;17.10;99.90;;;;;;5056828;28;20763;-81
2021/09/23 10:04:27;;;;;;;4.40;1.60;;;17.20;99.90;;;;;;5059261;28;20221;-82
2021/09/23 10:06:58;;;;;;;7.57;1.77;;;17.20;99.90;;;;;;5053925;28;20538;-82
2021/09/23 10:09:24;;;;;;;3.27;1.60;;;17.20;99.90;;;;;;5062485;28;20196;-83
2021/09/23 10:11:52;;;;;;;3.43;1.37;;;17.20;99.90;;;;;;5060745;28;20282;-81
2021/09/23 10:14:19;;;;;;;4.53;1.43;;;17.20;99.90;;;;;;5059952;28;20232;-83
2021/09/23 10:16:45;;;;;;;3.57;1.60;;;17.30;99.90;;;;;;5053429;28;20707;-82
2021/09/23 10:19:11;;;;;;;4.43;1.40;;;17.40;99.90;;;;;;5061802;28;20225;-82
2021/09/23 10:21:38;;;;;;;1.97;1.40;;;17.40;99.90;;;;;;5060803;28;20240;-82
2021/09/23 10:24:05;;;;;;;1.10;1.03;;;17.50;99.90;;;;;;5060432;28;20221;-82
2021/09/23 10:26:35;;;;;;;4.23;1.50;;;17.40;99.90;;;;;;5058990;28;20697;-82
2021/09/23 10:29:03;;;;;;;3.67;1.40;;;17.40;99.90;;;;;;5053877;28;20220;-82
2021/09/23 10:31:36;;;;;;;3.80;1.40;;;17.50;99.90;;;;;;5058332;28;20225;-81
2021/09/23 10:34:04;;;;;;;2.03;1.37;;;17.60;99.90;;;;;;5059768;28;20240;-80
2021/09/23 10:36:32;;;;;;;2.77;1.43;;;17.60;99.90;;;;;;5059477;28;20661;-82
2021/09/23 10:39:00;;;;;;;4.53;1.27;;;17.70;99.90;;;;;;5059474;28;20221;-82
2021/09/23 10:41:27;;;;;;;3.00;1.83;;;17.80;99.90;;;;;;5059238;28;20217;-81
2021/09/23 10:43:56;;;;;;;1.40;1.30;;;18.10;99.90;;;;;;5060694;28;20216;-83
2021/09/23 10:46:27;;;;;;;7.03;1.70;;;18.30;99.90;;;;;;5050777;28;20777;-82
2021/09/23 10:48:55;;;;;;;2.30;1.37;;;18.40;99.90;;;;;;5059314;28;20234;-81
2021/09/23 10:51:22;;;;;;;8.00;2.03;;;18.60;99.90;;;;;;5037291;28;20339;-80
2021/09/23 10:53:57;;;;;;;4.83;1.50;;;18.70;99.90;;;;;;5059313;28;20558;-82
2021/09/23 10:56:26;;;;;;;9.30;2.03;;;18.70;99.90;;;;;;5060724;28;20263;-82
2021/09/23 10:58:53;;;;;;;4.00;1.40;;;18.90;99.90;;;;;;5057648;28;20249;-81
2021/09/23 11:01:25;;;;;;;5.90;3.00;;;18.80;99.90;;;;;;5059447;28;20205;-80
2021/09/23 11:03:53;;;;;;;5.43;2.40;;;18.70;99.90;;;;;;5059488;28;20189;-82
2021/09/23 11:06:19;;;;;;;2.57;1.53;;;18.60;99.90;;;;;;5061240;28;20197;-82
2021/09/23 11:08:47;;;;;;;6.57;1.50;;;18.40;99.90;;;;;;5060572;28;20244;-81
2021/09/23 11:11:13;;;;;;;3.30;1.27;;;18.20;99.90;;;;;;5059063;28;20221;-84
2021/09/23 11:13:40;;;;;;;6.33;1.30;;;18.20;99.90;;;;;;5043116;28;20229;-80
2021/09/23 11:16:09;;;;;;;6.53;1.67;;;18.20;99.90;;;;;;5058959;28;20236;-81
2021/09/23 11:18:36;;;;;;;2.93;1.50;;;18.30;99.90;;;;;;5051433;28;20637;-80
2021/09/23 11:21:04;;;;;;;2.30;1.50;;;18.20;99.90;;;;;;5059489;28;20213;-81
2021/09/23 11:23:32;;;;;;;4.67;1.33;;;18.20;99.90;;;;;;5056102;28;20225;-83
2021/09/23 11:25:59;;;;;;;8.07;3.30;;;18.20;99.90;;;;;;5058674;28;20244;-82
2021/09/23 11:28:25;;;;;;;2.77;1.00;;;18.20;99.90;;;;;;5033179;28;20229;-84
2021/09/23 11:30:52;;;;;;;2.30;1.33;;;18.10;99.90;;;;;;5060326;28;20193;-81
2021/09/23 11:33:21;;;;;;;2.33;1.00;;;18.10;99.90;;;;;;5053422;28;20228;-81
2021/09/23 11:35:48;;;;;;;7.27;2.17;;;18.20;99.90;;;;;;5046629;28;20267;-80
2021/09/23 11:38:18;;;;;;;3.07;1.73;;;18.30;99.90;;;;;;5061918;28;20266;-80
2021/09/23 11:40:47;;;;;;;10.87;1.60;;;18.40;99.90;;;;;;5061467;28;20248;-80
2021/09/23 11:43:15;;;;;;;3.30;1.93;;;18.50;99.90;;;;;;5061007;28;20262;-81
2021/09/23 11:45:47;;;;;;;4.93;1.33;;;18.60;99.90;;;;;;5061450;28;20231;-80
2021/09/23 11:48:16;;;;;;;1.30;1.00;;;18.80;99.90;;;;;;5061565;28;20224;-81
2021/09/23 11:50:49;;;;;;;2.80;1.43;;;19.00;99.90;;;;;;5062636;28;20212;-81
2021/09/23 11:53:23;;;;;;;2.10;1.50;;;19.10;99.90;;;;;;5059015;28;20229;-80
2021/09/23 11:56:01;;;;;;;3.63;1.40;;;19.40;99.90;;;;;;5060620;28;20601;-82
2021/09/23 11:58:28;;;;;;;7.90;1.37;;;19.10;99.90;;;;;;5060208;28;20232;-80
2021/09/23 12:00:54;;;;;;;2.60;1.50;;;18.80;99.90;;;;;;5059366;28;20193;-79
2021/09/23 12:03:22;;;;;;;4.67;1.30;;;18.70;99.90;;;;;;5077269;28;20216;-81
2021/09/23 12:05:49;;;;;;;3.13;1.40;;;18.80;99.90;;;;;;5043241;28;20224;-82
2021/09/23 12:08:20;;;;;;;8.43;2.57;;;18.80;99.90;;;;;;5061508;28;20294;-80
2021/09/23 12:10:58;;;;;;;5.63;2.40;;;18.80;99.90;;;;;;5060620;28;20228;-81
2021/09/23 12:15:57;;;;;;;7.47;2.07;;;19.00;99.90;;;;;;5062045;28;20217;-83
2021/09/23 12:18:24;;;;;;;1.93;1.60;;;18.80;99.90;;;;;;5063555;28;20188;-80
2021/09/23 12:20:53;;;;;;;4.83;1.70;;;18.70;99.90;;;;;;5061415;28;20313;-80
2021/09/23 12:23:37;;;;;;;14.00;2.17;;;18.80;99.90;;;;;;5053529;28;20217;-81
2021/09/23 12:26:03;;;;;;;5.33;2.07;;;18.80;99.90;;;;;;5043062;28;20228;-82
2021/09/23 12:28:30;;;;;;;4.10;1.83;;;18.60;99.90;;;;;;5041320;28;20218;-81
2021/09/23 12:31:04;;;;;;;6.73;1.77;;;18.60;99.90;;;;;;5041780;28;20190;-80
2021/09/23 12:33:29;;;;;;;1.87;1.10;;;18.40;99.90;;;;;;5041523;28;20283;-81
2021/09/23 12:36:13;;;;;;;1.47;1.00;;;18.30;99.90;;;;;;5041542;28;20690;-81
2021/09/23 12:38:42;;;;;;;2.73;1.40;;;18.20;99.90;;;;;;5041265;28;20568;-80
2021/09/23 12:41:22;;;;;;;3.93;1.83;;;18.20;99.90;;;;;;5041330;28;20280;-81
2021/09/23 12:43:50;;;;;;;3.80;1.57;;;18.30;99.90;;;;;;5041097;28;20226;-80